Time;durP1;ratioP1;P1;durP2;ratioP2;P2;SDS_P1;SDS_P2;PMS_P1;PMS_P2;Temp;Humidity;BMP_temperature;BMP_pressure;BME280_temperature;BME280_humidity;BME280_pressure;Samples;Min_cycle;Max_cycle;Signal;HPM_P1;HPM_P2
2022/02/07 00:01:44;;;;;;;9.35;5.35;;;;;;;1.89;100.00;98363.11;1699725;82;21699;-59
2022/02/07 00:04:08;;;;;;;8.18;4.70;;;;;;;1.92;100.00;98361.80;1705498;82;21082;-59
2022/02/07 00:06:34;;;;;;;9.75;4.80;;;;;;;1.93;100.00;98354.03;1708150;82;21604;-59
2022/02/07 00:09:03;;;;;;;11.60;5.00;;;;;;;1.95;100.00;98350.55;1713108;82;21566;-59
2022/02/07 00:11:29;;;;;;;;;;;;;;;1.93;100.00;98351.34;1716249;82;21641;-59
2022/02/07 00:13:56;;;;;;;9.05;4.75;;;;;;;1.92;100.00;98350.53;1717990;82;20165;-59
2022/02/07 00:16:24;;;;;;;9.33;4.58;;;;;;;1.87;100.00;98341.62;1724102;82;21059;-60
2022/02/07 00:18:50;;;;;;;8.80;5.40;;;;;;;1.88;100.00;98340.01;1709432;82;21496;-59
2022/02/07 00:21:19;;;;;;;8.43;4.45;;;;;;;1.89;100.00;98334.94;1732842;82;21075;-59
2022/02/07 00:23:45;;;;;;;9.23;4.62;;;;;;;1.90;100.00;98324.48;1719128;82;21022;-59
2022/02/07 00:26:12;;;;;;;8.78;4.80;;;;;;;1.88;100.00;98327.12;1714291;82;21074;-58
2022/02/07 00:28:38;;;;;;;8.28;4.47;;;;;;;1.87;100.00;98326.86;1714739;82;21023;-60
2022/02/07 00:31:05;;;;;;;;;;;;;;;1.88;100.00;98322.56;1712567;82;21078;-59
2022/02/07 00:33:31;;;;;;;7.72;4.20;;;;;;;1.87;100.00;98318.28;1731110;82;20130;-59
2022/02/07 00:36:01;;;;;;;8.50;4.37;;;;;;;1.83;100.00;98317.16;1727348;82;21594;-59
2022/02/07 00:38:28;;;;;;;8.35;4.25;;;;;;;1.82;100.00;98320.89;1707768;82;21482;-59
2022/02/07 00:43:34;;;;;;;8.10;4.60;;;;;;;1.86;100.00;98307.78;1725189;82;21487;-59
2022/02/07 00:46:06;;;;;;;6.97;3.75;;;;;;;1.86;100.00;98309.94;1713451;82;21023;-59
2022/02/07 00:48:24;;;;;;;7.05;4.20;;;;;;;1.87;100.00;98300.02;1679605;84;21546;-59
2022/02/07 00:50:55;;;;;;;7.35;4.05;;;;;;;1.90;100.00;98290.95;1712328;82;21406;-59
2022/02/07 00:53:23;;;;;;;7.28;3.58;;;;;;;1.92;100.00;98287.98;1722841;82;21055;-59
2022/02/07 00:55:51;;;;;;;7.10;3.45;;;;;;;1.95;100.00;98284.80;1722147;82;21004;-59
2022/02/07 00:58:19;;;;;;;6.20;3.80;;;;;;;1.98;100.00;98281.64;1738287;82;21047;-60
2022/02/07 01:00:46;;;;;;;7.05;3.80;;;;;;;1.98;100.00;98276.27;1718221;82;21023;-59
2022/02/07 01:03:12;;;;;;;6.97;3.52;;;;;;;1.98;100.00;98264.98;1723175;82;21051;-59
2022/02/07 01:05:40;;;;;;;;;;;;;;;1.99;100.00;98259.90;1716060;82;21036;-59
2022/02/07 01:08:09;;;;;;;5.60;3.30;;;;;;;2.02;100.00;98252.42;1718761;82;20477;-60
2022/02/07 01:10:57;;;;;;;6.45;3.40;;;;;;;2.01;100.00;98246.24;1709736;84;21067;-60
2022/02/07 01:15:55;;;;;;;5.00;2.92;;;;;;;2.05;100.00;98235.28;1706309;82;21511;-59
2022/02/07 01:18:49;;;;;;;5.05;3.33;;;;;;;2.06;100.00;98225.33;1711166;82;21057;-58
2022/02/07 01:48:59;;;;;;;4.90;2.75;;;;;;;2.09;100.00;98154.50;1703593;82;21000;-59
2022/02/07 01:54:26;;;;;;;6.70;3.55;;;;;;;2.09;100.00;98149.13;1678821;82;20985;-59
2022/02/07 01:56:16;;;;;;;8.23;3.72;;;;;;;2.14;100.00;98148.37;1725246;82;21087;-59
2022/02/07 01:58:45;;;;;;;5.05;3.35;;;;;;;2.15;100.00;98148.13;1741796;82;21462;-59
2022/02/07 02:01:12;;;;;;;6.15;3.37;;;;;;;2.19;100.00;98143.06;1715515;81;21027;-58
2022/02/07 02:03:39;;;;;;;8.05;3.60;;;;;;;2.21;100.00;98134.20;1714390;82;21071;-59
2022/02/07 02:06:07;;;;;;;;;;;;;;;2.22;100.00;98135.30;1697472;83;21515;-58
2022/02/07 02:08:41;;;;;;;7.55;3.58;;;;;;;2.24;100.00;98134.50;1719092;82;20113;-59
2022/02/07 02:11:08;;;;;;;7.10;3.65;;;;;;;2.21;100.00;98128.83;1746776;82;21023;-59
2022/02/07 02:16:32;;;;;;;6.25;3.37;;;;;;;2.23;100.00;98126.72;1731522;82;21078;-58
2022/02/07 02:35:38;;;;;;;6.22;3.22;;;;;;;2.21;100.00;98115.41;1730740;82;21829;-60
2022/02/07 02:37:53;;;;;;;5.12;3.05;;;;;;;2.21;100.00;98111.38;1729298;82;21637;-59
2022/02/07 02:45:41;;;;;;;5.90;3.02;;;;;;;2.24;100.00;98130.47;1720020;82;20984;-59
2022/02/07 02:48:22;;;;;;;6.40;3.37;;;;;;;2.27;100.00;98123.77;1729411;82;21071;-58
2022/02/07 02:50:44;;;;;;;5.62;2.92;;;;;;;2.27;100.00;98123.77;1723089;82;21036;-59
2022/02/07 02:53:14;;;;;;;7.17;3.45;;;;;;;2.29;100.00;98113.07;1727207;82;21621;-59
2022/02/07 02:55:45;;;;;;;6.37;3.40;;;;;;;2.29;100.00;98115.75;1729525;82;21006;-59
2022/02/07 02:58:17;;;;;;;6.03;2.92;;;;;;;2.30;100.00;98121.38;1746851;81;21023;-59
2022/02/07 03:00:48;;;;;;;7.15;3.17;;;;;;;2.27;100.00;98113.84;1706345;82;21451;-59
2022/02/07 03:03:17;;;;;;;5.75;3.20;;;;;;;2.27;100.00;98112.50;1721089;82;21031;-59
2022/02/07 03:05:45;;;;;;;5.65;3.10;;;;;;;2.29;100.00;98110.38;1724580;82;21367;-59
2022/02/07 03:08:13;;;;;;;5.55;3.25;;;;;;;2.33;100.00;98107.99;1719505;82;21511;-59
2022/02/07 03:13:17;;;;;;;4.17;2.90;;;;;;;2.30;100.00;98085.69;1737251;82;21062;-59
2022/02/07 03:18:29;;;;;;;7.35;3.65;;;;;;;2.35;100.00;98079.80;1726696;82;21056;-59
2022/02/07 03:20:56;;;;;;;6.50;3.45;;;;;;;2.28;100.00;98073.85;1721625;82;21471;-59
2022/02/07 03:23:23;;;;;;;5.70;3.10;;;;;;;2.26;100.00;98079.22;1724157;82;21084;-59
2022/02/07 03:25:50;;;;;;;6.30;3.42;;;;;;;2.27;100.00;98071.41;1732787;82;21051;-59
2022/02/07 03:28:19;;;;;;;8.15;3.47;;;;;;;2.28;100.00;98071.17;1714462;82;21134;-59
2022/02/07 03:30:46;;;;;;;8.50;4.12;;;;;;;2.28;100.00;98068.48;1736664;82;21051;-59
2022/02/07 03:33:14;;;;;;;5.83;3.20;;;;;;;2.28;100.00;98055.06;1718838;82;21079;-58
2022/02/07 03:35:42;;;;;;;5.42;2.87;;;;;;;2.26;100.00;98061.23;1708918;82;21549;-58
2022/02/07 03:38:09;;;;;;;6.92;3.72;;;;;;;2.25;100.00;98056.11;1715728;82;21044;-59
2022/02/07 03:40:36;;;;;;;5.50;3.30;;;;;;;2.23;100.00;98052.89;1718631;82;21554;-59
2022/02/07 03:43:03;;;;;;;5.53;3.33;;;;;;;2.24;100.00;98040.53;1700469;82;21072;-58
2022/02/07 03:45:29;;;;;;;;;;;;;;;2.24;100.00;98039.19;1712284;82;21039;-59
2022/02/07 03:47:58;;;;;;;5.42;3.17;;;;;;;2.22;100.00;98035.97;1720572;82;20139;-59
2022/02/07 03:50:26;;;;;;;6.22;3.33;;;;;;;2.17;100.00;98037.79;1674509;84;21030;-59
2022/02/07 03:52:53;;;;;;;6.83;3.80;;;;;;;2.16;100.00;98033.51;1695792;82;21099;-58
2022/02/07 03:55:22;;;;;;;6.22;3.55;;;;;;;2.14;100.00;98031.07;1690819;84;21529;-58
2022/02/07 03:57:50;;;;;;;6.47;3.60;;;;;;;2.13;100.00;98021.92;1684000;84;21153;-58
2022/02/07 04:00:18;;;;;;;6.60;4.03;;;;;;;2.13;100.00;98028.63;1715333;82;21034;-58
2022/02/07 04:02:48;;;;;;;5.70;3.25;;;;;;;2.12;100.00;98021.67;1710707;82;21942;-59
2022/02/07 04:08:01;;;;;;;7.12;4.05;;;;;;;2.08;100.00;98023.25;1697042;82;21046;-58
2022/02/07 04:10:34;;;;;;;7.10;4.25;;;;;;;2.05;100.00;98024.58;1736141;82;21014;-58
2022/02/07 04:13:01;;;;;;;7.08;3.98;;;;;;;2.05;100.00;98019.74;1736732;82;21867;-59
2022/02/07 04:15:25;;;;;;;6.47;4.12;;;;;;;2.05;100.00;98019.74;1672174;85;20992;-59
2022/02/07 04:18:00;;;;;;;7.95;4.10;;;;;;;2.04;100.00;98017.59;1680767;84;21136;-59
2022/02/07 04:20:24;;;;;;;7.10;4.30;;;;;;;2.07;100.00;98014.91;1698963;84;21051;-59
2022/02/07 04:22:51;;;;;;;6.53;3.92;;;;;;;2.07;100.00;98004.98;1705203;82;21142;-59
2022/02/07 04:25:26;;;;;;;6.90;3.95;;;;;;;2.10;100.00;98000.97;1699396;82;21046;-59
2022/02/07 04:27:54;;;;;;;11.22;4.95;;;;;;;2.10;100.00;98008.49;1697635;82;21669;-59
2022/02/07 04:30:22;;;;;;;6.97;4.10;;;;;;;2.09;100.00;98002.06;1707083;82;21055;-59
2022/02/07 04:32:49;;;;;;;7.03;4.40;;;;;;;2.09;100.00;98002.84;1701715;83;21040;-59
2022/02/07 04:35:15;;;;;;;6.45;4.08;;;;;;;2.07;100.00;97999.62;1699491;83;21079;-58
2022/02/07 04:37:42;;;;;;;8.58;4.55;;;;;;;2.02;100.00;97994.20;1722387;83;21119;-59
2022/02/07 04:40:10;;;;;;;7.15;4.30;;;;;;;2.00;100.00;97999.85;1719814;82;21503;-59
2022/02/07 04:42:38;;;;;;;9.30;3.90;;;;;;;1.97;100.00;97996.34;1685420;84;21048;-59
2022/02/07 04:45:22;;;;;;;10.50;3.95;;;;;;;1.98;100.00;98001.19;1715853;82;21081;-59
2022/02/07 04:48:10;;;;;;;9.83;4.42;;;;;;;1.92;100.00;98004.87;1735779;82;21048;-58
2022/02/07 04:55:29;;;;;;;9.78;4.10;;;;;;;1.69;100.00;97991.84;1733013;82;21394;-59
2022/02/07 04:58:01;;;;;;;6.83;4.33;;;;;;;1.59;100.00;97981.05;1727313;82;21079;-59
2022/02/07 05:00:40;;;;;;;7.25;4.33;;;;;;;1.43;100.00;97985.45;1716134;82;21543;-59
2022/02/07 05:03:09;;;;;;;6.22;3.72;;;;;;;1.33;100.00;97991.55;1725209;82;21077;-59
2022/02/07 05:13:45;;;;;;;9.60;4.90;;;;;;;1.17;100.00;97977.71;1712486;82;21065;-60
2022/02/07 05:16:17;;;;;;;8.23;4.62;;;;;;;1.14;100.00;97984.11;1718231;82;21040;-59
2022/02/07 05:18:38;;;;;;;7.03;4.80;;;;;;;1.06;100.00;97989.42;1710487;82;21124;-60
2022/02/07 05:21:24;;;;;;;8.15;4.80;;;;;;;1.06;100.00;97982.72;1718182;82;21020;-59
2022/02/07 05:23:58;;;;;;;7.80;4.70;;;;;;;1.08;100.00;97993.98;1720945;82;20999;-60
2022/02/07 05:26:41;;;;;;;8.10;4.75;;;;;;;1.06;100.00;97998.80;1665127;86;21095;-58
2022/02/07 05:29:25;;;;;;;8.08;4.90;;;;;;;1.07;100.00;98015.66;1671520;84;21016;-58
2022/02/07 05:32:00;;;;;;;6.87;4.83;;;;;;;1.00;100.00;98010.50;1695433;82;21123;-58
2022/02/07 05:34:35;;;;;;;6.80;4.50;;;;;;;1.02;100.00;98011.08;1703670;84;21009;-58
2022/02/07 05:37:04;;;;;;;7.08;4.37;;;;;;;1.06;100.00;98020.23;1710414;84;21124;-58
2022/02/07 05:39:44;;;;;;;8.53;4.85;;;;;;;1.11;100.00;98024.30;1651667;86;21036;-58
2022/02/07 05:42:12;;;;;;;8.15;4.20;;;;;;;1.15;100.00;98021.39;1694655;84;21109;-58
2022/02/07 05:44:46;;;;;;;7.35;4.17;;;;;;;1.16;100.00;98014.98;1685621;84;21590;-58
2022/02/07 05:47:24;;;;;;;6.62;3.50;;;;;;;1.23;100.00;98011.56;1641506;85;21608;-58
2022/02/07 05:50:10;;;;;;;6.17;3.90;;;;;;;1.31;100.00;98008.96;1705813;82;20994;-58
2022/02/07 05:52:47;;;;;;;5.97;3.55;;;;;;;1.35;100.00;97996.64;1669155;85;21101;-59
2022/02/07 05:55:22;;;;;;;6.95;4.37;;;;;;;1.38;100.00;97996.94;1679051;84;21025;-58
2022/02/07 05:57:53;;;;;;;6.37;3.92;;;;;;;1.37;100.00;97989.17;1687037;82;21056;-58
2022/02/07 06:00:39;;;;;;;8.95;4.60;;;;;;;1.34;100.00;97992.36;1620679;88;21022;-57
2022/02/07 06:03:08;;;;;;;7.85;4.40;;;;;;;1.38;100.00;97992.14;1619484;86;21091;-59
2022/02/07 06:05:37;;;;;;;6.42;3.95;;;;;;;1.38;100.00;97985.44;1621745;86;20995;-58
2022/02/07 06:08:05;;;;;;;6.50;4.22;;;;;;;1.38;100.00;97980.85;1653935;85;21063;-57
2022/02/07 06:10:33;;;;;;;7.10;4.50;;;;;;;1.37;100.00;97985.96;1637772;85;21949;-58
2022/02/07 06:13:00;;;;;;;8.60;4.55;;;;;;;1.41;100.00;97989.75;1700589;83;21536;-59
2022/02/07 06:15:29;;;;;;;7.75;4.42;;;;;;;1.41;100.00;97989.75;1703824;84;20984;-59
2022/02/07 06:17:59;;;;;;;7.05;3.85;;;;;;;1.44;100.00;97985.22;1708365;84;21033;-58
2022/02/07 06:20:29;;;;;;;7.90;4.00;;;;;;;1.43;100.00;97988.95;1709016;84;21012;-57
2022/02/07 06:22:56;;;;;;;7.22;4.17;;;;;;;1.43;100.00;97979.56;1709332;83;21092;-58
2022/02/07 06:25:22;;;;;;;6.95;4.25;;;;;;;1.47;100.00;97973.97;1702414;84;21052;-59
2022/02/07 06:27:51;;;;;;;7.40;4.03;;;;;;;1.55;100.00;97975.91;1708609;82;21086;-58
2022/02/07 06:30:20;;;;;;;6.67;4.10;;;;;;;1.58;100.00;97968.69;1705145;84;21088;-59
2022/02/07 06:32:49;;;;;;;5.83;3.92;;;;;;;1.59;100.00;97973.81;1715810;82;21345;-58
2022/02/07 06:35:17;;;;;;;5.47;4.08;;;;;;;1.56;100.00;97981.00;1736357;82;21282;-58
2022/02/07 06:37:46;;;;;;;7.87;4.08;;;;;;;1.56;100.00;97979.66;1736441;82;21059;-58
2022/02/07 06:40:13;;;;;;;6.47;4.30;;;;;;;1.59;100.00;97986.41;1729481;82;21072;-59
2022/02/07 06:42:40;;;;;;;7.85;4.78;;;;;;;1.68;100.00;97982.17;1735147;82;21090;-59
2022/02/07 06:47:46;;;;;;;7.55;3.85;;;;;;;1.72;100.00;97988.64;1788546;79;22719;-58
2022/02/07 06:50:14;;;;;;;7.10;4.05;;;;;;;1.64;100.00;97997.16;1792728;80;21003;-58
2022/02/07 06:52:40;;;;;;;8.33;4.22;;;;;;;1.70;100.00;97987.55;1766171;80;21035;-58
2022/02/07 06:55:08;;;;;;;8.43;4.08;;;;;;;1.76;100.00;97989.75;1755390;82;20991;-59
2022/02/07 06:57:35;;;;;;;6.58;3.98;;;;;;;1.80;100.00;97990.86;1759487;80;21635;-59
2022/02/07 07:00:04;;;;;;;;;;;;;;;1.78;100.00;97982.23;1763949;81;21518;-59
2022/02/07 07:02:34;;;;;;;6.97;4.42;;;;;;;1.79;100.00;97985.20;1767245;80;20458;-59
2022/02/07 07:05:08;;;;;;;7.15;4.60;;;;;;;1.81;100.00;97984.41;1773507;80;21057;-58
2022/02/07 07:07:30;;;;;;;8.75;4.75;;;;;;;1.87;100.00;97972.66;1762348;80;21090;-58
2022/02/07 07:09:59;;;;;;;16.20;5.90;;;;;;;1.85;100.00;97977.46;1784311;80;21022;-60
2022/02/07 07:12:27;;;;;;;11.78;5.17;;;;;;;1.81;100.00;97965.09;1766673;80;21652;-58
2022/02/07 07:15:15;;;;;;;52.78;10.70;;;;;;;1.85;100.00;97969.41;1772472;80;21025;-57
2022/02/07 07:17:26;;;;;;;10.82;4.08;;;;;;;1.88;100.00;97965.67;1730630;81;21049;-58
2022/02/07 07:19:52;;;;;;;10.95;4.72;;;;;;;1.89;100.00;97960.59;1762295;80;20978;-59
2022/02/07 07:22:19;;;;;;;8.25;4.87;;;;;;;1.93;100.00;97961.70;1764086;80;21099;-59
2022/02/07 07:24:47;;;;;;;7.42;4.72;;;;;;;1.91;100.00;97962.47;1763507;80;20992;-59
2022/02/07 07:27:22;;;;;;;14.87;5.78;;;;;;;1.91;100.00;97961.13;1781105;80;21070;-58
2022/02/07 07:29:46;;;;;;;5.87;4.08;;;;;;;1.96;100.00;97970.56;1779496;80;21082;-59
2022/02/07 07:32:18;;;;;;;7.78;4.83;;;;;;;2.01;100.00;97971.14;1760991;81;21552;-58
2022/02/07 07:34:43;;;;;;;8.78;4.50;;;;;;;1.99;100.00;97962.00;1761108;81;21486;-58
2022/02/07 07:37:11;;;;;;;8.63;4.70;;;;;;;1.94;100.00;97957.95;1785615;80;21063;-59
2022/02/07 07:39:42;;;;;;;6.78;3.75;;;;;;;2.00;100.00;97963.63;1788488;80;21011;-59
2022/02/07 07:42:10;;;;;;;6.92;4.42;;;;;;;2.07;100.00;97959.36;1759713;80;21125;-59
2022/02/07 07:44:47;;;;;;;9.58;4.67;;;;;;;2.10;100.00;97950.78;1758703;80;21520;-59
2022/02/07 07:47:21;;;;;;;10.98;5.28;;;;;;;2.09;100.00;97941.11;1723522;80;21578;-59
2022/02/07 07:50:05;;;;;;;15.43;5.95;;;;;;;2.11;100.00;97940.33;1715371;83;21586;-59
2022/02/07 07:53:04;;;;;;;7.97;4.80;;;;;;;2.08;100.00;97945.41;1714106;83;21075;-59
2022/02/07 08:01:19;;;;;;;8.95;5.25;;;;;;;2.11;100.00;97936.83;1716407;82;21128;-59
2022/02/07 08:03:28;;;;;;;9.25;5.92;;;;;;;2.27;100.00;97935.29;1717140;83;21494;-59
2022/02/07 08:06:08;;;;;;;;;;;;;;;2.28;100.00;97937.45;1735344;82;21514;-59
2022/02/07 08:08:36;;;;;;;16.65;6.00;;;;;;;2.37;100.00;97937.23;1715988;83;20118;-60
2022/02/07 08:11:04;;;;;;;9.53;4.70;;;;;;;2.42;100.00;97938.05;1716683;83;21090;-60
2022/02/07 08:13:31;;;;;;;47.33;9.35;;;;;;;2.43;100.00;97936.18;1720278;82;21420;-60
2022/02/07 08:16:00;;;;;;;8.68;5.00;;;;;;;2.35;100.00;97938.02;1687495;83;21039;-59
2022/02/07 08:18:26;;;;;;;7.65;4.97;;;;;;;2.35;100.00;97936.14;1660914;85;21028;-59
2022/02/07 08:20:53;;;;;;;8.43;5.28;;;;;;;2.36;100.00;97928.90;1660184;86;21494;-59
2022/02/07 08:23:20;;;;;;;8.58;5.60;;;;;;;2.35;100.00;97924.06;1658751;86;21582;-59
2022/02/07 08:25:46;;;;;;;8.60;5.85;;;;;;;2.35;100.00;97921.38;1682122;85;21442;-59
2022/02/07 08:28:13;;;;;;;13.65;9.05;;;;;;;2.30;100.00;97921.34;1685675;85;21593;-59
2022/02/07 08:30:39;;;;;;;35.00;21.05;;;;;;;2.28;100.00;97920.80;1664200;85;21011;-60
2022/02/07 08:33:07;;;;;;;15.65;10.03;;;;;;;2.27;100.00;97912.47;1682578;85;21061;-59
2022/02/07 08:35:34;;;;;;;14.05;9.05;;;;;;;2.24;100.00;97913.00;1683750;84;21073;-60
2022/02/07 08:38:00;;;;;;;12.18;8.45;;;;;;;2.15;100.00;97921.30;1711306;84;21082;-60
2022/02/07 08:40:27;;;;;;;17.00;8.35;;;;;;;2.15;100.00;97921.30;1700458;84;21445;-59
2022/02/07 08:42:54;;;;;;;17.60;9.00;;;;;;;2.16;100.00;97926.91;1689576;84;21080;-60
2022/02/07 08:45:22;;;;;;;;;;;;;;;2.20;100.00;97929.88;1689366;84;21062;-59
2022/02/07 08:47:48;;;;;;;16.23;8.77;;;;;;;2.22;100.00;97921.05;1700365;83;20114;-59
2022/02/07 08:50:14;;;;;;;12.98;7.05;;;;;;;2.11;100.00;97917.52;1727033;82;21023;-60
2022/02/07 08:52:49;;;;;;;12.20;7.10;;;;;;;2.07;100.00;97925.81;1725131;83;21071;-59
2022/02/07 08:55:18;;;;;;;11.63;8.00;;;;;;;2.11;100.00;97924.22;1730406;81;21023;-60
2022/02/07 08:57:45;;;;;;;13.68;6.95;;;;;;;2.18;100.00;97926.67;1689654;85;21075;-59
2022/02/07 09:00:23;;;;;;;10.85;6.70;;;;;;;2.20;100.00;97918.62;1725886;82;21549;-59
2022/02/07 09:03:07;;;;;;;12.40;7.60;;;;;;;2.15;100.00;97920.48;1725284;83;21106;-59
2022/02/07 09:05:34;;;;;;;11.85;7.03;;;;;;;2.20;100.00;97913.25;1745577;82;21184;-60
2022/02/07 09:07:53;;;;;;;29.18;10.05;;;;;;;2.29;100.00;97909.00;1755790;81;21126;-59
2022/02/07 09:10:16;;;;;;;11.88;6.65;;;;;;;2.30;100.00;97907.13;1755200;81;21094;-59
2022/02/07 09:12:47;;;;;;;17.25;7.37;;;;;;;2.30;100.00;97914.63;1755580;81;21593;-60
2022/02/07 09:15:38;;;;;;;14.07;7.05;;;;;;;2.42;100.00;97909.04;1754746;81;20952;-59
2022/02/07 09:17:56;;;;;;;18.25;7.35;;;;;;;2.49;100.00;97916.31;1751531;81;21015;-59
2022/02/07 09:20:23;;;;;;;12.60;6.55;;;;;;;2.53;100.00;97921.97;1725765;82;20991;-59
2022/02/07 09:22:50;;;;;;;13.53;7.08;;;;;;;2.55;100.00;97915.25;1729216;82;21597;-59
2022/02/07 09:25:17;;;;;;;17.02;7.90;;;;;;;2.63;100.00;97920.13;1755665;82;20989;-60
2022/02/07 09:27:43;;;;;;;12.28;7.83;;;;;;;2.72;100.00;97917.73;1755069;82;21086;-59
2022/02/07 09:30:10;;;;;;;19.82;7.35;;;;;;;2.74;100.00;97917.73;1755521;82;21066;-60
2022/02/07 09:32:37;;;;;;;13.53;7.05;;;;;;;2.73;100.00;97913.42;1755559;81;21673;-59
2022/02/07 09:35:04;;;;;;;10.35;7.03;;;;;;;2.80;100.00;97915.88;1756818;81;21513;-59
2022/02/07 09:37:31;;;;;;;13.32;7.60;;;;;;;2.90;100.00;97917.24;1754422;82;21346;-59
2022/02/07 09:39:57;;;;;;;12.05;7.20;;;;;;;2.93;100.00;97913.48;1753321;82;21058;-59
2022/02/07 09:42:25;;;;;;;14.10;7.70;;;;;;;2.94;100.00;97910.27;1746679;81;21066;-59
2022/02/07 09:44:55;;;;;;;17.02;8.58;;;;;;;2.94;100.00;97904.33;1725616;83;21004;-59
2022/02/07 09:47:23;;;;;;;12.50;7.50;;;;;;;3.00;100.00;97908.66;1740475;82;21676;-59
2022/02/07 09:49:49;;;;;;;11.65;6.95;;;;;;;3.11;100.00;97914.04;1755933;82;21042;-58
2022/02/07 09:52:15;;;;;;;15.63;8.40;;;;;;;3.12;100.00;97913.75;1755161;81;21150;-59
2022/02/07 09:54:42;;;;;;;11.75;8.23;;;;;;;3.09;100.00;97913.48;1752817;82;21004;-59
2022/02/07 09:57:09;;;;;;;17.12;7.60;;;;;;;3.07;100.00;97912.95;1752099;82;21487;-59
2022/02/07 09:59:36;;;;;;;14.38;8.40;;;;;;;3.09;100.00;97926.39;1752913;82;21957;-59
2022/02/07 10:02:07;;;;;;;12.88;8.20;;;;;;;3.14;100.00;97922.38;1743896;80;21122;-59
2022/02/07 10:04:41;;;;;;;17.15;8.80;;;;;;;3.18;100.00;97921.30;1694906;83;21006;-59
2022/02/07 10:09:54;;;;;;;15.35;8.53;;;;;;;3.15;100.00;97930.72;1723323;83;21575;-59
2022/02/07 10:17:37;;;;;;;11.25;7.15;;;;;;;3.37;100.00;97929.91;1723243;82;21058;-59
2022/02/07 10:20:10;;;;;;;12.98;7.85;;;;;;;3.35;100.00;97927.22;1722456;83;20986;-59
2022/02/07 10:39:26;;;;;;;10.10;5.80;;;;;;;3.39;100.00;97935.03;1740829;82;21053;-58
2022/02/07 10:44:49;;;;;;;12.50;6.60;;;;;;;3.55;100.00;97927.74;1753098;82;21403;-59
2022/02/07 10:47:31;;;;;;;16.27;8.90;;;;;;;3.56;100.00;97930.71;1755049;81;21095;-59
2022/02/07 10:49:35;;;;;;;11.65;6.92;;;;;;;3.58;100.00;97928.58;1757277;81;21059;-59
2022/02/07 10:52:02;;;;;;;14.35;9.23;;;;;;;3.66;100.00;97923.97;1724764;82;21090;-59
2022/02/07 10:54:29;;;;;;;21.02;11.10;;;;;;;3.79;100.00;97923.44;1723887;83;21557;-59
2022/02/07 10:56:55;;;;;;;11.88;6.78;;;;;;;3.83;100.00;97925.83;1723877;83;21126;-58
2022/02/07 10:59:23;;;;;;;15.28;6.75;;;;;;;3.81;100.00;97918.58;1739835;81;20972;-59
2022/02/07 11:04:44;;;;;;;8.40;5.17;;;;;;;3.73;100.00;97919.13;1771060;81;21040;-60
2022/02/07 11:07:10;;;;;;;9.43;6.20;;;;;;;3.78;100.00;97901.09;1771015;81;21562;-61
2022/02/07 11:09:41;;;;;;;13.48;6.10;;;;;;;3.77;100.00;97901.36;1760267;81;21000;-61
2022/02/07 11:15:09;;;;;;;8.73;5.40;;;;;;;3.64;100.00;97888.47;1735828;81;21027;-58
2022/02/07 11:20:15;;;;;;;7.33;4.35;;;;;;;3.62;100.00;97870.42;1715273;84;20999;-59
2022/02/07 11:22:54;;;;;;;10.48;6.70;;;;;;;3.64;100.00;97864.25;1713430;84;21035;-59
2022/02/07 11:27:58;;;;;;;8.13;5.15;;;;;;;3.56;100.00;97837.89;1748779;81;21110;-59
2022/02/07 11:30:53;;;;;;;8.88;5.55;;;;;;;3.47;100.00;97837.09;1752917;82;21581;-59
2022/02/07 11:33:51;;;;;;;9.45;5.42;;;;;;;3.43;100.00;97832.02;1752905;82;21090;-59
2022/02/07 11:36:29;;;;;;;8.88;4.95;;;;;;;3.40;100.00;97833.88;1724091;82;20978;-60
2022/02/07 11:39:12;;;;;;;7.17;4.60;;;;;;;3.25;100.00;97819.13;1720645;83;21226;-59
2022/02/07 11:45:00;;;;;;;9.65;5.08;;;;;;;3.31;100.00;97816.69;1712469;84;21087;-60
2022/02/07 11:47:31;;;;;;;8.00;5.17;;;;;;;3.38;100.00;97810.49;1729519;81;21134;-60
2022/02/07 11:50:02;;;;;;;9.08;5.22;;;;;;;3.44;100.00;97809.39;1739281;82;21033;-60
2022/02/07 11:52:49;;;;;;;7.62;4.33;;;;;;;3.45;100.00;97812.36;1726239;82;21090;-60
2022/02/07 11:55:22;;;;;;;7.97;4.75;;;;;;;3.56;100.00;97821.75;1741802;82;21514;-60
2022/02/07 11:57:58;;;;;;;8.23;5.28;;;;;;;3.63;100.00;97839.23;1741572;82;21551;-60
2022/02/07 12:00:26;;;;;;;8.80;5.40;;;;;;;3.74;100.00;97848.89;1741310;82;21038;-60
2022/02/07 12:02:54;;;;;;;9.40;5.28;;;;;;;4.08;100.00;97849.57;1738970;82;21101;-59
2022/02/07 12:05:23;;;;;;;7.17;4.85;;;;;;;4.88;100.00;97867.22;1688963;82;21073;-60
2022/02/07 12:08:06;;;;;;;7.17;4.72;;;;;;;5.82;100.00;97879.35;1741112;81;21097;-60
2022/02/07 12:13:04;;;;;;;8.20;5.40;;;;;;;6.16;100.00;97906.31;1740654;82;21046;-60
2022/02/07 12:15:38;;;;;;;9.75;7.28;;;;;;;5.83;100.00;97901.22;1741579;81;21565;-61
2022/02/07 12:18:19;;;;;;;8.80;5.78;;;;;;;5.48;100.00;97898.31;1742580;82;21075;-58
2022/02/07 12:20:55;;;;;;;8.68;5.95;;;;;;;5.20;100.00;97899.89;1741743;82;20998;-58
2022/02/07 12:23:30;;;;;;;6.92;4.87;;;;;;;5.05;100.00;97895.14;1736169;82;21073;-58
2022/02/07 12:26:13;;;;;;;7.10;4.42;;;;;;;5.02;100.00;97907.30;1744106;81;20986;-58
2022/02/07 12:31:21;;;;;;;8.53;5.62;;;;;;;4.82;100.00;97897.43;1741595;82;21497;-58
2022/02/07 12:34:07;;;;;;;10.10;6.95;;;;;;;4.78;100.00;97894.24;1742295;81;21505;-58
2022/02/07 12:36:36;;;;;;;9.28;5.37;;;;;;;4.72;100.00;97892.64;1740446;82;21065;-58
2022/02/07 12:39:05;;;;;;;10.35;5.90;;;;;;;4.69;100.00;97884.58;1739249;82;21033;-59
2022/02/07 12:41:33;;;;;;;7.15;4.87;;;;;;;4.68;100.00;97882.95;1739363;82;21600;-58
2022/02/07 12:44:00;;;;;;;7.15;4.80;;;;;;;4.62;100.00;97895.39;1728135;82;21034;-58
2022/02/07 12:46:28;;;;;;;8.28;5.12;;;;;;;4.58;100.00;97891.64;1724418;81;21105;-58
2022/02/07 12:51:28;;;;;;;7.33;4.80;;;;;;;4.55;100.00;97904.33;1723676;83;21087;-58
2022/02/07 12:53:54;;;;;;;6.60;4.62;;;;;;;4.60;100.00;97909.70;1724282;81;21062;-58
2022/02/07 12:56:23;;;;;;;8.60;5.53;;;;;;;4.57;100.00;97917.78;1721449;83;21063;-58
2022/02/07 12:58:50;;;;;;;7.17;4.53;;;;;;;4.53;100.00;97924.83;1721261;83;21035;-58
2022/02/07 13:01:34;;;;;;;7.53;4.42;;;;;;;4.48;100.00;97928.87;1721123;83;21079;-58
2022/02/07 13:04:06;;;;;;;7.42;4.58;;;;;;;4.45;100.00;97932.12;1722435;81;21046;-59
2022/02/07 13:06:43;;;;;;;8.63;5.25;;;;;;;4.47;100.00;97925.38;1723841;83;21078;-58
2022/02/07 13:09:31;;;;;;;6.97;4.50;;;;;;;4.48;100.00;97935.08;1718326;83;21581;-58
2022/02/07 13:14:42;;;;;;;7.92;4.70;;;;;;;4.38;100.00;97942.39;1728252;82;20966;-61
2022/02/07 13:17:10;;;;;;;7.30;4.62;;;;;;;4.33;100.00;97940.52;1718217;83;21044;-59
2022/02/07 13:19:47;;;;;;;7.72;5.10;;;;;;;4.35;100.00;97946.45;1735365;82;21073;-60
2022/02/07 13:22:16;;;;;;;7.87;4.97;;;;;;;4.37;100.00;97951.02;1729772;81;21420;-60
2022/02/07 13:24:42;;;;;;;7.70;4.95;;;;;;;4.33;100.00;97946.44;1727582;81;21003;-59
2022/02/07 13:27:10;;;;;;;;;;;;;;;4.26;100.00;97939.19;1739599;81;21080;-59
2022/02/07 13:29:45;;;;;;;8.43;5.20;;;;;;;4.21;100.00;97940.56;1724795;82;20129;-59
2022/02/07 13:32:17;;;;;;;9.98;6.10;;;;;;;4.14;100.00;97936.02;1728373;82;21543;-59
2022/02/07 13:34:45;;;;;;;9.68;5.15;;;;;;;4.18;100.00;97931.70;1724260;83;20988;-60
2022/02/07 13:37:22;;;;;;;18.25;5.45;;;;;;;4.27;100.00;97933.55;1722288;83;21925;-59
2022/02/07 13:40:21;;;;;;;7.47;4.30;;;;;;;4.29;100.00;97933.25;1723240;82;21410;-59
2022/02/07 13:42:49;;;;;;;8.83;5.00;;;;;;;4.23;100.00;97936.52;1724169;82;21067;-59
2022/02/07 13:45:28;;;;;;;9.28;5.25;;;;;;;4.20;100.00;97926.83;1735344;82;21025;-59
2022/02/07 13:47:58;;;;;;;10.05;5.25;;;;;;;4.18;100.00;97927.66;1735466;82;21050;-59
2022/02/07 13:50:29;;;;;;;9.50;5.30;;;;;;;4.16;100.00;97925.22;1735840;82;21521;-59
2022/02/07 13:52:59;;;;;;;9.10;5.20;;;;;;;4.15;100.00;97920.91;1736206;82;21109;-59
2022/02/07 13:55:39;;;;;;;8.70;5.20;;;;;;;4.19;100.00;97924.67;1735068;83;21086;-59
2022/02/07 13:58:18;;;;;;;7.62;4.90;;;;;;;4.18;100.00;97933.05;1735515;82;21090;-59
2022/02/07 14:00:53;;;;;;;9.05;5.83;;;;;;;4.16;100.00;97935.19;1736974;81;21071;-59
2022/02/07 14:03:32;;;;;;;8.88;6.33;;;;;;;4.15;100.00;97932.22;1736299;82;21598;-59
2022/02/07 14:06:07;;;;;;;10.53;6.12;;;;;;;4.13;100.00;97935.20;1736619;82;21564;-59
2022/02/07 14:08:42;;;;;;;7.92;5.67;;;;;;;4.08;100.00;97928.47;1724979;82;21106;-59
2022/02/07 14:11:12;;;;;;;8.78;5.20;;;;;;;4.07;100.00;97931.45;1734097;81;21010;-60